Time;durP1;ratioP1;P1;durP2;ratioP2;P2;SDS_P1;SDS_P2;PMS_P1;PMS_P2;Temp;Humidity;BMP_temperature;BMP_pressure;BME280_temperature;BME280_humidity;BME280_pressure;Samples;Min_cycle;Max_cycle;Signal;HPM_P1;HPM_P2
2023/04/26 00:02:22;;;;;;;14.07;5.63;;;;;;;;;;6276419;28;20482;-51
2023/04/26 00:05:23;;;;;;;11.38;5.35;;;;;;;;;;6275367;28;20041;-50
2023/04/26 00:08:24;;;;;;;12.02;5.95;;;;;;;;;;6278213;28;20090;-50
2023/04/26 00:11:25;;;;;;;11.98;5.25;;;;;;;;;;6265440;28;20057;-59
2023/04/26 00:14:25;;;;;;;16.00;5.05;;;;;;;;;;6280321;28;20061;-49
2023/04/26 00:17:26;;;;;;;13.15;5.00;;;;;;;;;;6278254;28;20761;-54
2023/04/26 00:20:26;;;;;;;10.60;4.45;;;;;;;;;;6269350;28;20857;-48
2023/04/26 00:23:27;;;;;;;13.82;4.90;;;;;;;;;;6268629;28;20075;-53
2023/04/26 00:26:28;;;;;;;10.52;5.00;;;;;;;;;;6269954;28;20055;-50
2023/04/26 00:29:29;;;;;;;9.17;4.30;;;;;;;;;;6283034;28;20495;-54
2023/04/26 00:32:30;;;;;;;12.88;4.65;;;;;;;;;;6281530;28;20301;-48
2023/04/26 00:35:31;;;;;;;10.33;4.53;;;;;;;;;;6273781;28;20052;-53
2023/04/26 00:38:31;;;;;;;11.93;4.35;;;;;;;;;;6276936;28;20048;-53
2023/04/26 00:41:32;;;;;;;9.65;4.78;;;;;;;;;;6286318;28;20565;-50
2023/04/26 00:44:33;;;;;;;10.80;4.78;;;;;;;;;;6286416;28;20056;-48
2023/04/26 00:47:34;;;;;;;12.55;4.32;;;;;;;;;;6284577;28;20083;-52
2023/04/26 00:50:34;;;;;;;9.27;4.82;;;;;;;;;;6286446;28;20051;-52
2023/04/26 00:53:35;;;;;;;11.43;4.90;;;;;;;;;;6284050;28;20143;-53
2023/04/26 00:56:37;;;;;;;13.25;4.88;;;;;;;;;;6285343;28;20055;-52
2023/04/26 00:59:38;;;;;;;13.48;5.07;;;;;;;;;;6292278;28;20037;-52
2023/04/26 01:02:40;;;;;;;11.70;4.93;;;;;;;;;;6279618;28;20049;-48
2023/04/26 01:05:41;;;;;;;13.15;5.18;;;;;;;;;;6276882;28;20056;-52
2023/04/26 01:08:41;;;;;;;13.25;4.80;;;;;;;;;;6285019;28;20415;-49
2023/04/26 01:11:43;;;;;;;10.18;4.90;;;;;;;;;;6276183;28;20460;-58
2023/04/26 01:14:44;;;;;;;8.77;4.30;;;;;;;;;;6273729;28;20135;-49
2023/04/26 01:17:46;;;;;;;14.55;4.47;;;;;;;;;;6288289;28;20098;-49
2023/04/26 01:20:47;;;;;;;7.65;3.78;;;;;;;;;;6267372;28;20434;-49
2023/04/26 01:23:49;;;;;;;16.60;4.27;;;;;;;;;;6284571;28;20148;-49
2023/04/26 01:26:49;;;;;;;10.47;4.20;;;;;;;;;;6286461;28;20044;-49
2023/04/26 01:29:50;;;;;;;8.07;3.67;;;;;;;;;;6270238;28;20059;-50
2023/04/26 01:32:51;;;;;;;8.93;4.70;;;;;;;;;;6278737;28;20045;-49
2023/04/26 01:35:51;;;;;;;8.25;3.15;;;;;;;;;;6272686;28;20052;-51
2023/04/26 01:38:52;;;;;;;10.13;3.55;;;;;;;;;;6269953;28;20052;-59
2023/04/26 01:41:53;;;;;;;9.48;3.30;;;;;;;;;;6267836;28;20083;-50
2023/04/26 01:44:53;;;;;;;11.23;3.70;;;;;;;;;;6271905;28;20594;-50
2023/04/26 01:47:54;;;;;;;7.97;3.40;;;;;;;;;;6277373;28;20052;-50
2023/04/26 01:50:54;;;;;;;10.05;3.78;;;;;;;;;;6271731;28;20037;-57
2023/04/26 01:53:55;;;;;;;7.43;3.08;;;;;;;;;;6271915;28;20418;-50
2023/04/26 01:56:56;;;;;;;6.32;3.10;;;;;;;;;;6268270;28;20045;-50
2023/04/26 01:59:58;;;;;;;11.50;3.90;;;;;;;;;;6278683;28;20049;-54
2023/04/26 02:02:58;;;;;;;9.40;3.47;;;;;;;;;;6288384;28;20553;-50
2023/04/26 02:05:59;;;;;;;11.63;3.90;;;;;;;;;;6283705;28;20123;-52
2023/04/26 02:08:59;;;;;;;11.15;4.45;;;;;;;;;;6265714;28;20463;-50
2023/04/26 02:12:00;;;;;;;11.07;3.80;;;;;;;;;;6269404;28;20048;-51
2023/04/26 02:15:01;;;;;;;11.77;4.43;;;;;;;;;;6268797;28;20045;-51
2023/04/26 02:18:02;;;;;;;10.52;3.35;;;;;;;;;;6268850;28;20037;-53
2023/04/26 02:21:07;;;;;;;8.80;3.80;;;;;;;;;;6271457;28;20377;-52
2023/04/26 02:24:08;;;;;;;9.40;3.90;;;;;;;;;;6270186;28;20052;-48
2023/04/26 02:27:08;;;;;;;9.77;3.90;;;;;;;;;;6274554;28;20049;-50
2023/04/26 02:30:09;;;;;;;12.85;3.95;;;;;;;;;;6275767;28;20111;-52
2023/04/26 02:33:10;;;;;;;15.65;4.15;;;;;;;;;;6281931;28;20045;-49
2023/04/26 02:36:11;;;;;;;12.00;3.78;;;;;;;;;;6285903;28;20078;-52
2023/04/26 02:39:12;;;;;;;12.63;4.47;;;;;;;;;;6268592;28;20590;-57
2023/04/26 02:42:12;;;;;;;9.98;4.40;;;;;;;;;;6270906;28;20047;-50
2023/04/26 02:45:13;;;;;;;15.95;4.43;;;;;;;;;;6273640;28;20048;-51
2023/04/26 02:48:14;;;;;;;8.02;3.80;;;;;;;;;;6279325;28;20400;-59
2023/04/26 02:51:14;;;;;;;11.52;4.03;;;;;;;;;;6270466;28;20484;-49
2023/04/26 02:54:16;;;;;;;13.50;3.97;;;;;;;;;;6269125;28;20049;-49
2023/04/26 02:57:16;;;;;;;11.80;4.03;;;;;;;;;;6267325;28;20055;-49
2023/04/26 03:00:17;;;;;;;14.05;5.55;;;;;;;;;;6265455;28;20488;-56
2023/04/26 03:03:17;;;;;;;9.75;4.25;;;;;;;;;;6267161;28;20041;-54
2023/04/26 03:06:18;;;;;;;9.18;4.05;;;;;;;;;;6278019;28;20126;-54
2023/04/26 03:09:18;;;;;;;12.82;3.97;;;;;;;;;;6267494;28;20488;-51
2023/04/26 03:12:19;;;;;;;10.85;4.05;;;;;;;;;;6267311;28;20190;-50
2023/04/26 03:15:19;;;;;;;14.63;4.45;;;;;;;;;;6267894;28;20045;-49
2023/04/26 03:18:20;;;;;;;12.68;4.53;;;;;;;;;;6266223;28;20057;-50
2023/04/26 03:21:21;;;;;;;13.05;4.40;;;;;;;;;;6267846;28;20603;-54
2023/04/26 03:24:22;;;;;;;18.02;4.88;;;;;;;;;;6266641;28;20041;-49
2023/04/26 03:27:22;;;;;;;10.38;4.03;;;;;;;;;;6269516;28;20064;-48
2023/04/26 03:30:23;;;;;;;13.65;4.60;;;;;;;;;;6265583;28;20068;-51
2023/04/26 03:33:24;;;;;;;12.18;3.90;;;;;;;;;;6267382;28;20130;-50
2023/04/26 03:36:25;;;;;;;13.45;4.65;;;;;;;;;;6267380;28;20729;-53
2023/04/26 03:39:26;;;;;;;13.68;4.60;;;;;;;;;;6268712;28;20507;-50
2023/04/26 03:42:27;;;;;;;11.20;4.88;;;;;;;;;;6273208;28;20056;-54
2023/04/26 03:45:27;;;;;;;11.23;5.07;;;;;;;;;;6266165;28;20111;-50
2023/04/26 03:48:28;;;;;;;12.63;5.13;;;;;;;;;;6267277;28;20059;-49
2023/04/26 03:51:28;;;;;;;11.48;5.28;;;;;;;;;;6268380;28;20033;-50
2023/04/26 03:54:29;;;;;;;13.77;5.38;;;;;;;;;;6266853;28;20060;-50
2023/04/26 03:57:29;;;;;;;14.18;5.85;;;;;;;;;;6266767;28;20051;-51
2023/04/26 04:00:30;;;;;;;16.85;6.47;;;;;;;;;;6265630;28;20045;-51
2023/04/26 04:03:31;;;;;;;15.57;6.18;;;;;;;;;;6279456;28;20101;-47
2023/04/26 04:06:32;;;;;;;12.93;5.90;;;;;;;;;;6276367;28;20419;-48
2023/04/26 04:09:32;;;;;;;25.67;6.57;;;;;;;;;;6268111;28;20044;-53
2023/04/26 04:12:33;;;;;;;17.85;6.38;;;;;;;;;;6269206;28;20487;-53
2023/04/26 04:15:33;;;;;;;12.73;5.53;;;;;;;;;;6271889;28;20552;-55
2023/04/26 04:18:34;;;;;;;17.17;6.65;;;;;;;;;;6275542;28;20453;-53
2023/04/26 04:21:35;;;;;;;14.75;5.57;;;;;;;;;;6273892;28;20053;-50
2023/04/26 04:24:36;;;;;;;16.45;6.05;;;;;;;;;;6271198;28;20136;-58
2023/04/26 04:27:36;;;;;;;13.95;5.80;;;;;;;;;;6270063;28;20059;-55
2023/04/26 04:30:37;;;;;;;15.80;6.75;;;;;;;;;;6269444;28;20067;-47
2023/04/26 04:33:38;;;;;;;14.40;5.38;;;;;;;;;;6272692;28;20453;-52
2023/04/26 04:36:39;;;;;;;14.40;6.38;;;;;;;;;;6271375;28;20524;-51
2023/04/26 04:39:40;;;;;;;13.52;6.40;;;;;;;;;;6269152;28;20484;-49
2023/04/26 04:42:43;;;;;;;16.63;5.88;;;;;;;;;;6271156;28;20037;-48
2023/04/26 04:45:43;;;;;;;15.02;6.30;;;;;;;;;;6271044;28;20044;-49
2023/04/26 04:48:44;;;;;;;13.10;5.50;;;;;;;;;;6271803;28;20136;-47
2023/04/26 04:51:45;;;;;;;12.75;5.85;;;;;;;;;;6270446;28;20041;-51
2023/04/26 04:54:46;;;;;;;13.30;5.90;;;;;;;;;;6272823;28;20163;-51
2023/04/26 04:57:46;;;;;;;12.82;5.13;;;;;;;;;;6271367;28;20377;-50
2023/04/26 05:00:47;;;;;;;14.20;5.55;;;;;;;;;;6271691;28;20080;-53
2023/04/26 05:03:48;;;;;;;15.25;5.80;;;;;;;;;;6273077;28;20067;-51
2023/04/26 05:06:49;;;;;;;20.55;6.40;;;;;;;;;;6271471;28;20088;-48
2023/04/26 05:09:50;;;;;;;17.13;5.90;;;;;;;;;;6282372;28;20048;-47
2023/04/26 05:12:51;;;;;;;16.13;5.45;;;;;;;;;;6288950;28;20060;-49
2023/04/26 05:15:51;;;;;;;12.85;5.00;;;;;;;;;;6270754;28;20041;-51
2023/04/26 05:18:52;;;;;;;14.75;5.55;;;;;;;;;;6270092;28;20041;-52
2023/04/26 05:21:53;;;;;;;10.25;4.65;;;;;;;;;;6267556;28;20403;-50
2023/04/26 05:24:54;;;;;;;12.82;4.75;;;;;;;;;;6280018;28;20044;-49
2023/04/26 05:27:54;;;;;;;16.92;5.28;;;;;;;;;;6289353;28;20053;-54
2023/04/26 05:30:55;;;;;;;10.07;4.50;;;;;;;;;;6288257;28;20029;-48
2023/04/26 05:33:56;;;;;;;13.73;4.65;;;;;;;;;;6271268;28;20060;-56
2023/04/26 05:36:56;;;;;;;11.85;4.45;;;;;;;;;;6266343;28;20068;-50
2023/04/26 05:39:57;;;;;;;11.45;4.03;;;;;;;;;;6265390;28;20052;-49
2023/04/26 05:42:58;;;;;;;13.23;4.70;;;;;;;;;;6266046;28;20399;-50
2023/04/26 05:45:59;;;;;;;11.40;5.07;;;;;;;;;;6269156;28;20118;-47
2023/04/26 05:48:59;;;;;;;12.00;4.80;;;;;;;;;;6265532;28;20044;-49
2023/04/26 05:52:00;;;;;;;11.88;4.63;;;;;;;;;;6266603;28;20043;-49
2023/04/26 05:55:03;;;;;;;10.68;4.40;;;;;;;;;;6265592;28;20105;-49
2023/04/26 05:58:03;;;;;;;;;;;;;;;;;;6279684;28;20063;-49
2023/04/26 06:01:05;;;;;;;13.95;3.92;;;;;;;;;;6268427;28;19921;-48
2023/04/26 06:04:05;;;;;;;11.23;4.25;;;;;;;;;;6263900;28;20044;-48
2023/04/26 06:07:06;;;;;;;7.53;3.58;;;;;;;;;;6228878;28;1081246;-48
2023/04/26 06:10:06;;;;;;;12.27;4.32;;;;;;;;;;6266391;28;20207;-48
2023/04/26 06:13:07;;;;;;;10.93;4.43;;;;;;;;;;6268861;28;20051;-49
2023/04/26 06:16:08;;;;;;;12.68;3.90;;;;;;;;;;6265978;28;20041;-49
2023/04/26 06:19:08;;;;;;;10.32;4.22;;;;;;;;;;6265598;28;20292;-49
2023/04/26 06:22:09;;;;;;;11.60;4.47;;;;;;;;;;6268622;28;20533;-48
2023/04/26 06:25:10;;;;;;;9.93;4.85;;;;;;;;;;6267863;28;20159;-52
2023/04/26 06:28:11;;;;;;;11.68;4.30;;;;;;;;;;6267107;28;20407;-48
2023/04/26 06:31:12;;;;;;;11.77;3.60;;;;;;;;;;6267504;28;20052;-48
2023/04/26 06:34:12;;;;;;;9.60;3.55;;;;;;;;;;6267716;28;20592;-48
2023/04/26 06:37:13;;;;;;;9.70;3.65;;;;;;;;;;6265345;28;20747;-48
2023/04/26 06:40:14;;;;;;;10.77;3.53;;;;;;;;;;6264466;28;20040;-48
2023/04/26 06:43:15;;;;;;;9.00;2.90;;;;;;;;;;6265328;28;20037;-50
2023/04/26 06:46:16;;;;;;;10.20;2.80;;;;;;;;;;6269985;28;20061;-50
2023/04/26 06:49:16;;;;;;;6.93;2.60;;;;;;;;;;6265437;28;20640;-49
2023/04/26 06:52:17;;;;;;;7.35;2.63;;;;;;;;;;6266904;28;20037;-51
2023/04/26 06:55:18;;;;;;;8.45;2.70;;;;;;;;;;6268080;28;20037;-50
2023/04/26 06:58:18;;;;;;;6.95;2.50;;;;;;;;;;6268043;28;20052;-48
2023/04/26 07:01:19;;;;;;;9.85;3.60;;;;;;;;;;6264021;28;20055;-48
2023/04/26 07:04:20;;;;;;;8.50;2.92;;;;;;;;;;6264070;28;20102;-52
2023/04/26 07:07:21;;;;;;;6.47;2.83;;;;;;;;;;6266796;28;20060;-48
2023/04/26 07:10:21;;;;;;;8.15;3.47;;;;;;;;;;6264251;28;20458;-48
2023/04/26 07:13:22;;;;;;;7.35;2.60;;;;;;;;;;6264378;28;20051;-51
2023/04/26 07:16:22;;;;;;;10.43;3.17;;;;;;;;;;6270989;28;20060;-50
2023/04/26 07:19:23;;;;;;;8.23;3.13;;;;;;;;;;6267419;28;20044;-50
2023/04/26 07:22:23;;;;;;;7.47;3.50;;;;;;;;;;6269039;28;20393;-50
2023/04/26 07:25:24;;;;;;;8.70;3.45;;;;;;;;;;6267495;28;20043;-47
2023/04/26 07:28:25;;;;;;;9.30;3.42;;;;;;;;;;6263582;28;20071;-50
2023/04/26 07:31:25;;;;;;;8.95;3.60;;;;;;;;;;6266009;28;20044;-49
2023/04/26 07:34:26;;;;;;;9.60;3.88;;;;;;;;;;6263762;28;20471;-49
2023/04/26 07:37:27;;;;;;;7.03;3.67;;;;;;;;;;6265884;28;20045;-49
2023/04/26 07:40:28;;;;;;;6.57;3.53;;;;;;;;;;6264430;28;20530;-48
2023/04/26 07:43:30;;;;;;;7.77;3.50;;;;;;;;;;6264246;28;20041;-52
2023/04/26 07:46:32;;;;;;;5.93;3.33;;;;;;;;;;6264278;28;20052;-49
2023/04/26 07:49:33;;;;;;;7.32;3.65;;;;;;;;;;6262779;28;20214;-51
2023/04/26 07:52:33;;;;;;;6.65;3.50;;;;;;;;;;6266131;28;20037;-47
2023/04/26 07:55:36;;;;;;;8.60;3.58;;;;;;;;;;6268322;28;20059;-48
2023/04/26 07:58:38;;;;;;;10.27;4.10;;;;;;;;;;6264014;28;20053;-51
2023/04/26 08:01:39;;;;;;;;;;;;;;;;;;6265301;28;20832;-48
2023/04/26 08:04:47;;;;;;;7.28;3.50;;;;;;;;;;6264425;28;19939;-48
2023/04/26 08:07:47;;;;;;;10.43;4.55;;;;;;;;;;6268971;28;20048;-59
2023/04/26 08:10:48;;;;;;;8.40;4.32;;;;;;;;;;6266419;28;20543;-48
2023/04/26 08:13:49;;;;;;;9.65;3.80;;;;;;;;;;6264560;28;20041;-50
2023/04/26 08:16:50;;;;;;;13.07;4.63;;;;;;;;;;6262793;28;20045;-48
2023/04/26 08:19:51;;;;;;;8.17;3.70;;;;;;;;;;6267671;28;20063;-48
2023/04/26 08:22:55;;;;;;;8.15;3.60;;;;;;;;;;6266052;28;20045;-48
2023/04/26 08:25:56;;;;;;;9.45;3.30;;;;;;;;;;6264736;28;20045;-52
2023/04/26 08:28:56;;;;;;;9.43;3.58;;;;;;;;;;6262599;28;20065;-47
2023/04/26 08:31:57;;;;;;;9.00;3.72;;;;;;;;;;6263524;28;20072;-49
2023/04/26 08:34:58;;;;;;;7.78;3.90;;;;;;;;;;6263896;28;20083;-46
2023/04/26 08:37:59;;;;;;;5.70;3.05;;;;;;;;;;6263744;28;20041;-54
2023/04/26 08:41:00;;;;;;;5.57;2.83;;;;;;;;;;6261268;28;20626;-49
2023/04/26 08:44:04;;;;;;;6.00;2.80;;;;;;;;;;6262951;28;20049;-51
2023/04/26 08:47:49;;;;;;;6.55;3.33;;;;;;;;;;6267272;28;20033;-49
2023/04/26 08:50:51;;;;;;;9.20;3.25;;;;;;;;;;6251856;28;20203;-56
2023/04/26 08:53:52;;;;;;;7.82;3.00;;;;;;;;;;6263749;28;20033;-48
2023/04/26 08:56:57;;;;;;;6.07;2.90;;;;;;;;;;6265618;28;20041;-54
2023/04/26 08:59:58;;;;;;;8.63;2.97;;;;;;;;;;6267643;28;20298;-49
2023/04/26 09:02:59;;;;;;;6.50;3.42;;;;;;;;;;6267564;28;20051;-53
2023/04/26 09:06:00;;;;;;;6.18;2.80;;;;;;;;;;6281725;28;20048;-57
2023/04/26 09:09:07;;;;;;;6.13;2.17;;;;;;;;;;6278456;28;20036;-48
2023/04/26 09:12:08;;;;;;;5.90;2.67;;;;;;;;;;6275437;28;20040;-48
2023/04/26 09:15:09;;;;;;;5.60;2.88;;;;;;;;;;6283444;28;20063;-55
2023/04/26 09:18:20;;;;;;;9.50;2.75;;;;;;;;;;6284389;28;20484;-55
2023/04/26 09:21:21;;;;;;;6.65;2.63;;;;;;;;;;6286888;28;20098;-46
2023/04/26 09:24:22;;;;;;;4.55;2.10;;;;;;;;;;6290913;28;20053;-47
2023/04/26 09:27:38;;;;;;;4.90;2.53;;;;;;;;;;6269650;28;20047;-48
2023/04/26 09:30:39;;;;;;;5.40;2.20;;;;;;;;;;6276438;28;20059;-50
2023/04/26 09:33:57;;;;;;;4.75;1.90;;;;;;;;;;6267067;28;20419;-48
2023/04/26 09:36:57;;;;;;;3.85;2.22;;;;;;;;;;6269057;28;20045;-50
2023/04/26 09:39:58;;;;;;;5.38;1.92;;;;;;;;;;6270684;28;20538;-47
2023/04/26 09:43:01;;;;;;;5.38;2.30;;;;;;;;;;6266273;28;20123;-48
2023/04/26 09:46:02;;;;;;;7.85;2.70;;;;;;;;;;6265497;28;20447;-49
2023/04/26 09:49:02;;;;;;;7.00;2.30;;;;;;;;;;6268445;28;20036;-47
2023/04/26 09:52:05;;;;;;;6.20;2.55;;;;;;;;;;6268495;28;20136;-48
2023/04/26 09:55:06;;;;;;;;;;;;;;;;;;6265571;28;20037;-48
2023/04/26 09:58:08;;;;;;;6.88;2.17;;;;;;;;;;6266980;28;19921;-57
2023/04/26 10:01:10;;;;;;;6.13;1.73;;;;;;;;;;6268339;28;20044;-47
2023/04/26 10:04:11;;;;;;;5.68;1.50;;;;;;;;;;6269370;28;20060;-47
2023/04/26 10:07:12;;;;;;;6.93;1.60;;;;;;;;;;6265730;28;20064;-45
2023/04/26 10:10:13;;;;;;;6.82;1.80;;;;;;;;;;6272771;28;20080;-51
2023/04/26 10:13:15;;;;;;;5.13;1.70;;;;;;;;;;6269867;28;20531;-55
2023/04/26 10:16:16;;;;;;;5.97;1.90;;;;;;;;;;6266419;28;20399;-51
2023/04/26 10:19:16;;;;;;;5.13;2.00;;;;;;;;;;6270110;28;20056;-47
2023/04/26 10:22:22;;;;;;;6.63;2.30;;;;;;;;;;6271303;28;20048;-49
2023/04/26 10:25:34;;;;;;;5.68;1.92;;;;;;;;;;6267701;28;20036;-46
2023/04/26 10:28:44;;;;;;;6.35;2.83;;;;;;;;;;6268192;28;20045;-48
2023/04/26 10:32:00;;;;;;;3.83;1.48;;;;;;;;;;6267111;28;20131;-48
2023/04/26 10:35:11;;;;;;;3.70;1.40;;;;;;;;;;6268744;28;20051;-53
2023/04/26 10:38:11;;;;;;;5.70;2.53;;;;;;;;;;6264304;28;20480;-49
2023/04/26 10:41:33;;;;;;;4.20;1.65;;;;;;;;;;6268604;28;20055;-48
2023/04/26 10:44:41;;;;;;;4.57;1.50;;;;;;;;;;6272583;28;20048;-54
2023/04/26 10:47:41;;;;;;;4.32;1.75;;;;;;;;;;6267887;28;20047;-58
2023/04/26 10:51:00;;;;;;;4.30;1.80;;;;;;;;;;6266953;28;20033;-57
2023/04/26 10:54:01;;;;;;;5.97;1.83;;;;;;;;;;6267072;28;20090;-60
2023/04/26 10:57:01;;;;;;;6.38;1.92;;;;;;;;;;6268627;28;20202;-53
2023/04/26 11:00:26;;;;;;;7.35;1.90;;;;;;;;;;6265991;28;20072;-48
2023/04/26 11:03:29;;;;;;;4.88;1.80;;;;;;;;;;6266243;28;20041;-52
2023/04/26 11:06:50;;;;;;;7.28;2.28;;;;;;;;;;6267904;28;20040;-47
2023/04/26 11:09:51;;;;;;;5.80;2.30;;;;;;;;;;6270758;28;20514;-57
2023/04/26 11:13:02;;;;;;;8.30;3.23;;;;;;;;;;6275323;28;20054;-49
2023/04/26 11:16:08;;;;;;;5.60;2.30;;;;;;;;;;6268001;28;20103;-48
2023/04/26 11:19:08;;;;;;;8.77;2.50;;;;;;;;;;6264758;28;20047;-48
2023/04/26 11:22:09;;;;;;;7.68;2.42;;;;;;;;;;6265147;28;20057;-50
2023/04/26 11:25:12;;;;;;;9.95;2.78;;;;;;;;;;6269103;28;20062;-47
2023/04/26 11:28:12;;;;;;;6.80;2.75;;;;;;;;;;6268258;28;20048;-48
2023/04/26 11:31:13;;;;;;;6.70;2.55;;;;;;;;;;6266582;28;20045;-47
2023/04/26 11:34:13;;;;;;;6.60;2.30;;;;;;;;;;6266815;28;20040;-54
2023/04/26 11:37:15;;;;;;;6.20;2.60;;;;;;;;;;6269010;28;20044;-47
2023/04/26 11:40:15;;;;;;;5.70;2.30;;;;;;;;;;6266643;28;20048;-49
2023/04/26 11:43:16;;;;;;;7.22;2.13;;;;;;;;;;6264374;28;20420;-46
2023/04/26 11:46:19;;;;;;;4.78;2.00;;;;;;;;;;6267509;28;20426;-55
2023/04/26 11:49:20;;;;;;;4.88;2.10;;;;;;;;;;6269693;28;20062;-58
2023/04/26 11:52:21;;;;;;;5.25;1.80;;;;;;;;;;6267347;28;20052;-51
2023/04/26 11:55:30;;;;;;;3.90;1.70;;;;;;;;;;6263330;28;20040;-52
2023/04/26 11:58:31;;;;;;;6.93;2.80;;;;;;;;;;6269211;28;20048;-60
2023/04/26 12:01:32;;;;;;;7.57;2.30;;;;;;;;;;6269919;28;20416;-51
2023/04/26 12:04:33;;;;;;;8.15;2.90;;;;;;;;;;6267782;28;20553;-47
2023/04/26 12:07:35;;;;;;;5.88;2.25;;;;;;;;;;6265395;28;20154;-50
2023/04/26 12:10:37;;;;;;;4.82;2.40;;;;;;;;;;6264951;28;20045;-47
2023/04/26 12:13:38;;;;;;;6.70;2.80;;;;;;;;;;6266067;28;20055;-55
2023/04/26 12:16:41;;;;;;;4.75;2.30;;;;;;;;;;6264309;28;20496;-49
2023/04/26 12:19:42;;;;;;;4.88;2.50;;;;;;;;;;6261611;28;20496;-51
2023/04/26 12:23:00;;;;;;;6.80;2.35;;;;;;;;;;6264803;28;20044;-50
2023/04/26 12:26:02;;;;;;;5.95;2.50;;;;;;;;;;6264801;28;20041;-51
2023/04/26 12:29:03;;;;;;;5.20;2.17;;;;;;;;;;6267877;28;20549;-49
2023/04/26 12:32:04;;;;;;;5.60;1.77;;;;;;;;;;6263686;28;20071;-48
2023/04/26 12:35:05;;;;;;;7.03;2.08;;;;;;;;;;6265424;28;20041;-51
2023/04/26 12:38:06;;;;;;;14.65;2.72;;;;;;;;;;6269802;28;21085;-52
2023/04/26 12:41:07;;;;;;;4.90;2.20;;;;;;;;;;6270321;28;20482;-49
2023/04/26 12:44:09;;;;;;;5.30;2.03;;;;;;;;;;6268533;28;20049;-47
2023/04/26 12:47:09;;;;;;;4.95;2.10;;;;;;;;;;6268493;28;20542;-49
2023/04/26 12:50:11;;;;;;;5.63;1.98;;;;;;;;;;6269113;28;20056;-48
2023/04/26 12:53:12;;;;;;;7.80;2.58;;;;;;;;;;6268261;28;20255;-47
2023/04/26 12:56:15;;;;;;;7.23;2.40;;;;;;;;;;6267901;28;20110;-46
2023/04/26 12:59:15;;;;;;;9.35;2.35;;;;;;;;;;6269108;28;20102;-49
2023/04/26 13:02:16;;;;;;;7.35;3.03;;;;;;;;;;6271804;28;20531;-53
2023/04/26 13:05:16;;;;;;;4.53;1.85;;;;;;;;;;6267895;28;20052;-51
2023/04/26 13:08:17;;;;;;;3.78;2.03;;;;;;;;;;6268101;28;20049;-49
2023/04/26 13:11:17;;;;;;;4.53;2.08;;;;;;;;;;6266754;28;20048;-47
2023/04/26 13:14:18;;;;;;;5.95;2.15;;;;;;;;;;6268502;28;20048;-48
2023/04/26 13:17:19;;;;;;;5.00;2.10;;;;;;;;;;6269710;28;20036;-49
2023/04/26 13:20:20;;;;;;;8.50;2.95;;;;;;;;;;6269342;28;20488;-49
2023/04/26 13:23:20;;;;;;;8.07;2.38;;;;;;;;;;6270011;28;20049;-47
2023/04/26 13:26:22;;;;;;;6.07;2.10;;;;;;;;;;6268955;28;20071;-49
2023/04/26 13:29:23;;;;;;;4.85;2.15;;;;;;;;;;6269376;28;20044;-51
2023/04/26 13:32:23;;;;;;;6.40;2.45;;;;;;;;;;6270862;28;20803;-48
2023/04/26 13:35:24;;;;;;;6.38;2.20;;;;;;;;;;6269051;28;20052;-50
2023/04/26 13:38:24;;;;;;;4.85;2.10;;;;;;;;;;6270619;28;20186;-47
2023/04/26 13:41:25;;;;;;;4.88;2.10;;;;;;;;;;6268551;28;20053;-49
2023/04/26 13:44:27;;;;;;;7.68;2.30;;;;;;;;;;6268022;28;20060;-48
2023/04/26 13:47:27;;;;;;;8.33;2.63;;;;;;;;;;6270306;28;20087;-50
2023/04/26 13:50:28;;;;;;;7.25;2.40;;;;;;;;;;6264666;28;20048;-47
2023/04/26 13:53:29;;;;;;;8.52;2.60;;;;;;;;;;6267652;28;20045;-48
2023/04/26 13:56:29;;;;;;;5.15;2.00;;;;;;;;;;6267388;28;20139;-49
2023/04/26 13:59:30;;;;;;;7.45;2.38;;;;;;;;;;6267289;28;20492;-47
2023/04/26 14:02:31;;;;;;;7.93;2.85;;;;;;;;;;6268304;28;20056;-52
2023/04/26 14:05:31;;;;;;;6.95;2.42;;;;;;;;;;6269268;28;20045;-48
2023/04/26 14:08:32;;;;;;;8.23;2.40;;;;;;;;;;6267942;28;20123;-48
2023/04/26 14:11:33;;;;;;;7.38;2.65;;;;;;;;;;6266017;28;20094;-47
2023/04/26 14:14:33;;;;;;;5.90;2.35;;;;;;;;;;6267963;28;20085;-48
2023/04/26 14:17:34;;;;;;;6.43;2.65;;;;;;;;;;6269709;28;20044;-52
2023/04/26 14:20:35;;;;;;;4.70;2.15;;;;;;;;;;6284687;28;20086;-51
2023/04/26 14:23:36;;;;;;;3.80;2.00;;;;;;;;;;6268391;28;20449;-51
2023/04/26 14:26:36;;;;;;;6.47;2.20;;;;;;;;;;6269182;28;20214;-46
2023/04/26 14:29:37;;;;;;;5.13;2.05;;;;;;;;;;6272920;28;20067;-48
2023/04/26 14:32:38;;;;;;;7.53;2.30;;;;;;;;;;6272588;28;20072;-52
2023/04/26 14:35:38;;;;;;;9.57;1.85;;;;;;;;;;6270652;28;20068;-51
2023/04/26 14:38:43;;;;;;;4.72;1.85;;;;;;;;;;6270959;28;20062;-49
2023/04/26 14:41:45;;;;;;;6.25;2.00;;;;;;;;;;6268186;28;20680;-51
2023/04/26 14:44:46;;;;;;;4.78;1.80;;;;;;;;;;6274741;28;20044;-49
2023/04/26 14:47:47;;;;;;;8.00;2.10;;;;;;;;;;6281716;28;20036;-49
2023/04/26 14:50:47;;;;;;;13.90;2.40;;;;;;;;;;6279925;28;20285;-47
2023/04/26 14:53:48;;;;;;;10.25;2.53;;;;;;;;;;6281931;28;20052;-55
2023/04/26 14:56:50;;;;;;;9.65;2.50;;;;;;;;;;6279931;28;20662;-52
2023/04/26 14:59:50;;;;;;;5.97;2.85;;;;;;;;;;6278374;28;20049;-53
2023/04/26 15:02:51;;;;;;;6.43;2.38;;;;;;;;;;6282271;28;20119;-49
2023/04/26 15:05:52;;;;;;;4.40;2.10;;;;;;;;;;6278968;28;20494;-52
2023/04/26 15:08:52;;;;;;;8.32;3.00;;;;;;;;;;6278323;28;20498;-55
2023/04/26 15:11:53;;;;;;;9.32;2.58;;;;;;;;;;6273222;28;20041;-59
2023/04/26 15:14:54;;;;;;;9.48;2.33;;;;;;;;;;6277230;28;20559;-48
2023/04/26 15:17:55;;;;;;;5.50;2.35;;;;;;;;;;6266705;28;20047;-51
2023/04/26 15:20:56;;;;;;;11.45;2.25;;;;;;;;;;6267239;28;20055;-48
2023/04/26 15:23:57;;;;;;;6.68;2.22;;;;;;;;;;6266619;28;20055;-56
2023/04/26 15:26:57;;;;;;;6.43;2.30;;;;;;;;;;6265573;28;20044;-51
2023/04/26 15:29:58;;;;;;;6.45;2.38;;;;;;;;;;6265599;28;20080;-49
2023/04/26 15:32:59;;;;;;;8.10;2.30;;;;;;;;;;6266774;28;20442;-52
2023/04/26 15:36:00;;;;;;;9.75;2.63;;;;;;;;;;6268292;28;20055;-52
2023/04/26 15:39:01;;;;;;;6.78;2.05;;;;;;;;;;6267979;28;20056;-51
2023/04/26 15:42:04;;;;;;;6.45;2.28;;;;;;;;;;6265070;28;21426;-51
2023/04/26 15:45:05;;;;;;;7.72;2.35;;;;;;;;;;6265359;28;20140;-49
2023/04/26 15:48:06;;;;;;;8.47;2.60;;;;;;;;;;6266833;28;20044;-50
2023/04/26 15:51:06;;;;;;;8.68;2.55;;;;;;;;;;6266944;28;20045;-49
2023/04/26 15:54:07;;;;;;;8.43;2.28;;;;;;;;;;6268682;28;20053;-51
2023/04/26 15:57:08;;;;;;;7.38;2.63;;;;;;;;;;6266724;28;20102;-51
2023/04/26 16:00:11;;;;;;;9.23;3.13;;;;;;;;;;6266536;28;20047;-52
2023/04/26 16:03:12;;;;;;;7.70;3.00;;;;;;;;;;6267975;28;20052;-50
2023/04/26 16:06:12;;;;;;;5.65;2.40;;;;;;;;;;6265047;28;20191;-53
2023/04/26 16:09:18;;;;;;;8.60;2.88;;;;;;;;;;6271925;28;20115;-51
2023/04/26 16:12:18;;;;;;;6.13;2.40;;;;;;;;;;6272611;28;20051;-49
2023/04/26 16:15:19;;;;;;;9.02;2.92;;;;;;;;;;6274007;28;20048;-54
2023/04/26 16:18:20;;;;;;;9.02;2.90;;;;;;;;;;6272408;28;20139;-55
2023/04/26 16:21:21;;;;;;;8.00;2.92;;;;;;;;;;6271197;28;20044;-52
2023/04/26 16:24:22;;;;;;;9.13;3.50;;;;;;;;;;6271358;28;20167;-51
2023/04/26 16:27:25;;;;;;;13.55;3.45;;;;;;;;;;6270585;28;20107;-53
2023/04/26 16:30:26;;;;;;;7.68;2.97;;;;;;;;;;6272962;28;20053;-53
2023/04/26 16:33:26;;;;;;;11.50;3.40;;;;;;;;;;6273912;28;20053;-52
2023/04/26 16:36:27;;;;;;;7.95;2.95;;;;;;;;;;6269783;28;20132;-54
2023/04/26 16:39:28;;;;;;;9.45;3.70;;;;;;;;;;6269284;28;21169;-52
2023/04/26 16:42:29;;;;;;;9.27;4.10;;;;;;;;;;6273689;28;20080;-51
2023/04/26 16:45:30;;;;;;;15.60;4.15;;;;;;;;;;6271301;28;20056;-50
2023/04/26 16:48:32;;;;;;;16.42;5.60;;;;;;;;;;6273874;28;20040;-49
2023/04/26 16:51:33;;;;;;;27.75;6.07;;;;;;;;;;6272066;28;20052;-53
2023/04/26 16:54:34;;;;;;;20.65;5.57;;;;;;;;;;6271258;28;20055;-52
2023/04/26 16:57:34;;;;;;;11.88;4.15;;;;;;;;;;6272599;28;20090;-50
2023/04/26 17:00:35;;;;;;;19.67;5.45;;;;;;;;;;6270400;28;20113;-53
2023/04/26 17:03:35;;;;;;;43.20;9.85;;;;;;;;;;6271491;28;20145;-49
2023/04/26 17:06:36;;;;;;;32.33;8.55;;;;;;;;;;6272826;28;20223;-53
2023/04/26 17:09:37;;;;;;;16.45;5.10;;;;;;;;;;6273368;28;20060;-54
2023/04/26 17:12:37;;;;;;;13.57;4.60;;;;;;;;;;6282114;28;20103;-48
2023/04/26 17:15:39;;;;;;;27.23;5.40;;;;;;;;;;6279864;28;20045;-47
2023/04/26 17:18:40;;;;;;;;;;;;;;;;;;6282637;28;20519;-48
2023/04/26 17:21:41;;;;;;;22.20;5.70;;;;;;;;;;6279850;28;19932;-50
2023/04/26 17:24:41;;;;;;;30.42;7.32;;;;;;;;;;6282172;28;20578;-54
2023/04/26 17:27:42;;;;;;;17.40;5.85;;;;;;;;;;6280225;28;20040;-58
2023/04/26 17:30:43;;;;;;;12.88;4.80;;;;;;;;;;6282844;28;20099;-48
2023/04/26 17:33:45;;;;;;;12.45;4.47;;;;;;;;;;6283025;28;20431;-50
2023/04/26 17:36:46;;;;;;;15.52;5.22;;;;;;;;;;6283840;28;20036;-49
2023/04/26 17:39:46;;;;;;;11.02;4.40;;;;;;;;;;6284521;28;20096;-56
2023/04/26 17:42:47;;;;;;;11.00;4.18;;;;;;;;;;6285787;28;20083;-52
2023/04/26 17:45:47;;;;;;;17.80;4.75;;;;;;;;;;6283565;28;20051;-49
2023/04/26 17:48:48;;;;;;;12.55;4.85;;;;;;;;;;6285244;28;20049;-50
2023/04/26 17:51:49;;;;;;;19.15;4.80;;;;;;;;;;6287249;28;20394;-48
2023/04/26 17:54:49;;;;;;;11.32;3.83;;;;;;;;;;6289551;28;20572;-49
2023/04/26 17:57:50;;;;;;;15.40;4.30;;;;;;;;;;6287456;28;20048;-52
2023/04/26 18:00:51;;;;;;;11.63;4.00;;;;;;;;;;6278816;28;20799;-52
2023/04/26 18:03:51;;;;;;;10.30;4.40;;;;;;;;;;6287201;28;20056;-51